createdAt,value
2022-11-27T00:00:00.694Z,100767.35
2022-11-27T00:03:02.691Z,100768.93
2022-11-27T00:06:22.037Z,100769.07
2022-11-27T00:09:25.295Z,100766.41
2022-11-27T00:12:27.048Z,100765.75
2022-11-27T00:15:28.748Z,100764.08
2022-11-27T00:18:30.529Z,100763.55
2022-11-27T00:21:34.376Z,100762.85
2022-11-27T00:24:36.048Z,100761.23
2022-11-27T00:27:37.785Z,100758.13
2022-11-27T00:30:39.745Z,100760.05
2022-11-27T00:33:41.567Z,100764.78
2022-11-27T00:36:47.840Z,100763.84
2022-11-27T00:39:50.017Z,100768.40
2022-11-27T00:42:51.724Z,100767.16
2022-11-27T00:45:53.464Z,100761.95
2022-11-27T00:48:55.156Z,100761.12
2022-11-27T00:51:56.978Z,100760.33
2022-11-27T00:54:58.941Z,100758.11
2022-11-27T00:58:00.625Z,100761.11
2022-11-27T01:01:05.882Z,100756.38
2022-11-27T01:04:11.367Z,100753.99
2022-11-27T01:07:13.088Z,100755.58
2022-11-27T01:10:14.904Z,100752.14
2022-11-27T01:13:16.864Z,100755.51
2022-11-27T01:16:21.365Z,100758.27
2022-11-27T01:19:23.333Z,100757.11
2022-11-27T01:22:25.060Z,100758.45
2022-11-27T01:25:27.264Z,100760.34
2022-11-27T01:28:29.054Z,100755.73
2022-11-27T01:31:31.320Z,100754.57
2022-11-27T01:34:33.103Z,100751.23
2022-11-27T01:37:34.754Z,100751.95
2022-11-27T01:40:37.067Z,100754.82
2022-11-27T01:43:43.360Z,100752.09
2022-11-27T01:46:47.294Z,100750.45
2022-11-27T01:49:54.079Z,100746.68
2022-11-27T01:53:03.724Z,100747.30
2022-11-27T01:56:05.904Z,100743.42
2022-11-27T01:59:07.711Z,100745.93
2022-11-27T02:02:09.412Z,100747.03
2022-11-27T02:05:17.329Z,100747.21
2022-11-27T02:08:19.085Z,100748.52
2022-11-27T02:11:24.785Z,100749.28
2022-11-27T02:14:40.104Z,100750.66
2022-11-27T02:18:13.272Z,100754.84
2022-11-27T02:21:37.653Z,100753.14
2022-11-27T02:25:03.245Z,100753.27
2022-11-27T02:28:17.277Z,100753.74
2022-11-27T02:31:24.400Z,100753.52
2022-11-27T02:34:46.346Z,100757.80
2022-11-27T02:37:54.173Z,100758.34
2022-11-27T02:41:04.234Z,100761.06
2022-11-27T02:44:06.732Z,100766.81
2022-11-27T02:47:08.567Z,100768.85
2022-11-27T02:50:14.393Z,100771.42
2022-11-27T02:53:31.481Z,100773.93
2022-11-27T02:56:34.682Z,100779.69
2022-11-27T02:59:37.269Z,100783.06
2022-11-27T03:02:55.318Z,100784.54
2022-11-27T03:06:00.869Z,100785.21
2022-11-27T03:09:36.095Z,100779.56
2022-11-27T03:12:37.844Z,100783.10
2022-11-27T03:15:40.414Z,100787.19
2022-11-27T03:19:21.839Z,100787.24
2022-11-27T03:22:23.920Z,100787.00
2022-11-27T03:25:25.643Z,100788.72
2022-11-27T03:28:27.190Z,100793.74
2022-11-27T03:31:29.370Z,100796.59
2022-11-27T03:34:31.832Z,100798.44
2022-11-27T03:37:34.603Z,100797.33
2022-11-27T03:40:46.276Z,100797.64
2022-11-27T03:44:22.469Z,100798.27
2022-11-27T03:48:08.472Z,100795.15
2022-11-27T03:51:26.615Z,100799.95
2022-11-27T03:54:51.784Z,100799.61
2022-11-27T03:58:03.553Z,100799.33
2022-11-27T04:01:09.196Z,100799.65
2022-11-27T04:04:10.854Z,100798.27
2022-11-27T04:07:16.255Z,100800.89
2022-11-27T04:10:18.001Z,100804.23
2022-11-27T04:13:19.665Z,100801.54
2022-11-27T04:16:21.722Z,100799.22
2022-11-27T04:19:23.521Z,100800.56
2022-11-27T04:22:25.276Z,100804.95
2022-11-27T04:25:27.362Z,100808.14
2022-11-27T04:28:29.128Z,100804.84
2022-11-27T04:31:30.841Z,100805.42
2022-11-27T04:34:33.047Z,100810.58
2022-11-27T04:37:35.056Z,100807.10
2022-11-27T04:40:36.758Z,100806.52
2022-11-27T04:43:38.525Z,100806.15
2022-11-27T04:46:40.360Z,100805.65
2022-11-27T04:49:42.233Z,100806.48
2022-11-27T04:52:43.929Z,100807.70
2022-11-27T04:55:45.506Z,100806.57
2022-11-27T04:58:47.361Z,100807.15
2022-11-27T05:01:49.185Z,100804.05
2022-11-27T05:04:50.891Z,100806.40
2022-11-27T05:07:52.697Z,100799.77
2022-11-27T05:11:06.677Z,100797.69
2022-11-27T05:14:22.905Z,100794.41
2022-11-27T05:17:24.622Z,100796.79
2022-11-27T05:20:26.165Z,100794.38
2022-11-27T05:23:28.636Z,100798.25
2022-11-27T05:26:30.457Z,100798.78
2022-11-27T05:29:32.280Z,100799.87
2022-11-27T05:32:33.780Z,100798.86
2022-11-27T05:35:35.372Z,100797.67
2022-11-27T05:38:37.277Z,100800.81
2022-11-27T05:41:40.873Z,100802.15
2022-11-27T05:44:42.891Z,100806.23
2022-11-27T05:47:44.658Z,100812.85
2022-11-27T05:50:46.565Z,100815.04
2022-11-27T05:53:49.690Z,100823.18
2022-11-27T05:56:52.040Z,100821.86
2022-11-27T05:59:53.972Z,100826.78
2022-11-27T06:02:56.618Z,100826.34
2022-11-27T06:05:58.616Z,100821.65
2022-11-27T06:09:00.609Z,100817.39
2022-11-27T06:12:02.407Z,100819.86
2022-11-27T06:15:04.441Z,100815.51
2022-11-27T06:18:06.386Z,100814.67
2022-11-27T06:21:09.470Z,100817.85
2022-11-27T06:24:11.081Z,100822.19
2022-11-27T06:27:12.761Z,100817.84
2022-11-27T06:30:14.453Z,100819.21
2022-11-27T06:33:16.195Z,100817.30
2022-11-27T06:36:19.143Z,100813.28
2022-11-27T06:39:20.972Z,100813.04
2022-11-27T06:42:22.587Z,100810.52
2022-11-27T06:45:24.440Z,100812.17
2022-11-27T06:48:25.999Z,100815.33
2022-11-27T06:51:30.089Z,100818.25
2022-11-27T06:54:31.853Z,100813.65
2022-11-27T06:57:33.385Z,100811.31
2022-11-27T07:00:35.193Z,100812.52
2022-11-27T07:03:36.977Z,100812.80
2022-11-27T07:06:38.821Z,100813.67
2022-11-27T07:09:40.582Z,100812.21
2022-11-27T07:12:42.525Z,100809.38
2022-11-27T07:15:44.696Z,100804.31
2022-11-27T07:18:49.104Z,100807.06
2022-11-27T07:21:50.949Z,100802.91
2022-11-27T07:24:52.588Z,100803.95
2022-11-27T07:27:55.831Z,100795.85
2022-11-27T07:30:58.914Z,100787.91
2022-11-27T07:34:00.870Z,100784.48
2022-11-27T07:37:02.572Z,100786.77
2022-11-27T07:40:04.876Z,100789.43
2022-11-27T07:43:06.606Z,100791.10
2022-11-27T07:46:09.204Z,100790.29
2022-11-27T07:49:11.041Z,100787.20
2022-11-27T07:52:12.556Z,100787.08
2022-11-27T07:55:14.404Z,100792.95
2022-11-27T07:58:16.150Z,100794.58
2022-11-27T08:01:18.623Z,100796.99
2022-11-27T08:04:20.813Z,100798.33
2022-11-27T08:07:28.740Z,100799.77
2022-11-27T08:10:37.815Z,100801.33
2022-11-27T08:13:39.674Z,100803.73
2022-11-27T08:16:41.491Z,100807.24
2022-11-27T08:19:43.293Z,100807.22
2022-11-27T08:22:44.833Z,100805.98
2022-11-27T08:25:46.469Z,100806.38
2022-11-27T08:28:48.120Z,100809.30
2022-11-27T08:31:49.687Z,100809.94
2022-11-27T08:34:51.370Z,100812.45
2022-11-27T08:37:53.258Z,100809.21
2022-11-27T08:40:59.687Z,100800.73
2022-11-27T08:44:03.516Z,100800.10
2022-11-27T08:47:07.306Z,100796.58
2022-11-27T08:50:09.387Z,100791.00
2022-11-27T08:53:11.432Z,100788.66
2022-11-27T08:56:19.142Z,100792.21
2022-11-27T08:59:20.791Z,100793.23
2022-11-27T09:02:22.486Z,100792.27
2022-11-27T09:05:24.585Z,100795.30
2022-11-27T09:08:26.172Z,100798.23
2022-11-27T09:11:28.457Z,100797.98
2022-11-27T09:14:30.073Z,100793.98
2022-11-27T09:17:32.224Z,100785.75
2022-11-27T09:20:33.957Z,100793.17
2022-11-27T09:23:35.703Z,100796.58
2022-11-27T09:26:37.365Z,100793.76
2022-11-27T09:29:39.503Z,100792.16
2022-11-27T09:32:41.335Z,100786.70
2022-11-27T09:35:43.032Z,100786.80
2022-11-27T09:38:45.103Z,100788.69
2022-11-27T09:41:50.546Z,100784.77
2022-11-27T09:44:57.520Z,100782.36
2022-11-27T09:48:05.711Z,100781.14
2022-11-27T09:51:19.222Z,100780.95
2022-11-27T09:54:28.546Z,100775.02
2022-11-27T09:57:37.265Z,100772.92
2022-11-27T10:00:39.001Z,100773.10
2022-11-27T10:03:42.822Z,100772.64
2022-11-27T10:06:50.715Z,100769.60
2022-11-27T10:10:02.490Z,100768.00
2022-11-27T10:13:16.417Z,100765.45
2022-11-27T10:16:44.560Z,100763.89
2022-11-27T10:19:58.543Z,100761.57
2022-11-27T10:23:21.117Z,100757.00
2022-11-27T10:26:32.278Z,100758.05
2022-11-27T10:29:47.116Z,100753.90
2022-11-27T10:32:55.964Z,100755.73
2022-11-27T10:35:58.886Z,100755.49
2022-11-27T10:39:01.624Z,100753.36
2022-11-27T10:42:10.332Z,100757.59
2022-11-27T10:45:22.909Z,100757.83
2022-11-27T10:48:24.947Z,100751.52
2022-11-27T10:51:33.689Z,100751.77
2022-11-27T10:54:37.979Z,100750.46
2022-11-27T10:58:04.234Z,100743.97
2022-11-27T11:01:08.982Z,100738.65
2022-11-27T11:04:37.010Z,100739.09
2022-11-27T11:07:34.882Z,100736.84
2022-11-27T11:10:56.669Z,100735.65
2022-11-27T11:13:58.756Z,100736.47
2022-11-27T11:17:00.817Z,100738.14
2022-11-27T11:20:15.140Z,100731.98
2022-11-27T11:23:43.284Z,100728.34
2022-11-27T11:26:48.260Z,100726.39
2022-11-27T11:29:51.696Z,100729.81
2022-11-27T11:33:00.267Z,100723.84
2022-11-27T11:36:09.712Z,100716.38
2022-11-27T11:39:23.212Z,100716.60
2022-11-27T11:42:33.784Z,100714.55
2022-11-27T11:45:45.383Z,100713.48
2022-11-27T11:48:59.387Z,100711.75
2022-11-27T11:52:22.402Z,100708.68
2022-11-27T11:55:31.653Z,100708.45
2022-11-27T11:58:57.274Z,100713.70
2022-11-27T12:02:20.662Z,100710.77
2022-11-27T12:05:39.857Z,100702.05
2022-11-27T12:09:03.424Z,100701.41
2022-11-27T12:12:23.671Z,100698.15
2022-11-27T12:15:36.475Z,100695.96
2022-11-27T12:18:55.384Z,100693.83
2022-11-27T12:22:12.340Z,100690.36
2022-11-27T12:25:32.764Z,100689.94
2022-11-27T12:28:47.010Z,100690.15
2022-11-27T12:32:10.536Z,100690.65
2022-11-27T12:35:32.373Z,100684.78
2022-11-27T12:38:51.689Z,100686.34
2022-11-27T12:42:09.461Z,100687.95
2022-11-27T12:45:35.580Z,100679.35
2022-11-27T12:48:41.487Z,100679.11
2022-11-27T12:51:48.466Z,100678.73
2022-11-27T12:54:57.702Z,100679.02
2022-11-27T12:58:04.462Z,100677.74
2022-11-27T13:01:10.433Z,100675.50
2022-11-27T13:04:18.895Z,100672.93
2022-11-27T13:07:25.617Z,100675.64
2022-11-27T13:10:32.932Z,100675.44
2022-11-27T13:13:39.557Z,100670.31
2022-11-27T13:16:46.619Z,100666.44
2022-11-27T13:19:50.264Z,100664.77
2022-11-27T13:22:52.213Z,100661.68
2022-11-27T13:48:01.303Z,100593.33
2022-11-27T13:51:03.900Z,100606.98
2022-11-27T13:54:14.694Z,100608.98
2022-11-27T13:57:18.271Z,100611.23
2022-11-27T14:00:48.949Z,100612.41
2022-11-27T14:03:51.151Z,100613.59
2022-11-27T14:07:00.151Z,100614.88
2022-11-27T14:10:09.388Z,100611.63
2022-11-27T14:13:11.270Z,100603.77
2022-11-27T14:16:29.278Z,100602.88
2022-11-27T14:19:41.509Z,100604.39
2022-11-27T14:23:09.903Z,100608.66
2022-11-27T14:26:15.814Z,100611.85
2022-11-27T14:29:20.793Z,100610.52
2022-11-27T14:32:22.424Z,100612.71
2022-11-27T14:35:26.308Z,100612.46
2022-11-27T14:38:29.623Z,100612.70
2022-11-27T14:41:31.972Z,100614.73
2022-11-27T14:44:34.296Z,100616.35
2022-11-27T14:47:36.654Z,100614.59
2022-11-27T14:50:38.631Z,100616.77
2022-11-27T14:53:40.621Z,100619.33
2022-11-27T14:56:43.797Z,100618.23
2022-11-27T14:59:45.652Z,100615.02
2022-11-27T15:02:51.294Z,100610.13
2022-11-27T15:06:02.184Z,100605.54
2022-11-27T15:09:30.386Z,100609.02
2022-11-27T15:12:31.433Z,100611.61
2022-11-27T15:15:39.954Z,100609.06
2022-11-27T15:18:42.497Z,100599.55
2022-11-27T15:21:49.046Z,100596.75
2022-11-27T15:25:02.146Z,100596.93
2022-11-27T15:28:24.948Z,100599.05
2022-11-27T15:31:37.777Z,100599.64
2022-11-27T15:34:40.539Z,100603.30
2022-11-27T15:37:42.863Z,100605.98
2022-11-27T15:40:44.512Z,100597.67
2022-11-27T15:43:46.301Z,100600.05
2022-11-27T15:46:47.879Z,100602.59
2022-11-27T15:49:50.149Z,100605.78
2022-11-27T15:52:51.989Z,100606.44
2022-11-27T15:55:53.664Z,100603.04
2022-11-27T15:58:55.354Z,100599.71
2022-11-27T16:01:58.076Z,100593.45
2022-11-27T16:04:59.920Z,100596.52
2022-11-27T16:08:01.462Z,100594.54
2022-11-27T16:11:06.166Z,100592.90
2022-11-27T16:14:07.762Z,100589.39
2022-11-27T16:17:09.471Z,100585.86
2022-11-27T16:20:11.431Z,100587.94
2022-11-27T16:23:13.027Z,100587.73
2022-11-27T16:26:14.841Z,100586.99
2022-11-27T16:29:16.719Z,100581.70
2022-11-27T16:32:18.701Z,100579.21
2022-11-27T16:35:20.224Z,100575.91
2022-11-27T16:38:22.160Z,100575.67
2022-11-27T16:41:24.677Z,100575.59
2022-11-27T16:44:26.587Z,100572.84
2022-11-27T16:47:33.602Z,100564.59
2022-11-27T16:50:36.191Z,100565.02
2022-11-27T16:53:43.098Z,100561.73
2022-11-27T16:56:44.917Z,100560.46
2022-11-27T16:59:46.657Z,100560.20
2022-11-27T17:02:48.399Z,100558.59
2022-11-27T17:05:51.562Z,100556.27
2022-11-27T17:08:54.658Z,100562.37
2022-11-27T17:11:56.376Z,100564.84
2022-11-27T17:14:58.502Z,100566.13
2022-11-27T17:18:01.113Z,100561.77
2022-11-27T17:21:06.178Z,100561.12
2022-11-27T17:24:15.088Z,100562.28
2022-11-27T17:27:18.530Z,100559.55
2022-11-27T17:30:20.281Z,100554.88
2022-11-27T17:33:22.437Z,100550.02
2022-11-27T17:36:28.758Z,100545.31
2022-11-27T17:39:33.207Z,100542.86
2022-11-27T17:42:34.846Z,100541.59
2022-11-27T17:45:40.954Z,100539.45
2022-11-27T17:48:43.233Z,100538.43
2022-11-27T17:51:45.137Z,100537.14
2022-11-27T17:54:47.013Z,100539.28
2022-11-27T17:57:48.849Z,100534.55
2022-11-27T18:00:50.419Z,100531.48
2022-11-27T18:03:55.146Z,100531.70
2022-11-27T18:06:57.453Z,100527.36
2022-11-27T18:09:59.251Z,100525.48
2022-11-27T18:13:00.848Z,100522.88
2022-11-27T18:16:11.393Z,100515.65
2022-11-27T18:19:13.267Z,100513.05
2022-11-27T18:22:16.346Z,100513.91
2022-11-27T18:25:18.112Z,100510.36
2022-11-27T18:28:19.690Z,100502.21
2022-11-27T18:31:22.362Z,100499.81
2022-11-27T18:34:24.226Z,100493.53
2022-11-27T18:37:26.108Z,100488.83
2022-11-27T18:40:28.099Z,100485.00
2022-11-27T18:43:29.920Z,100486.84
2022-11-27T18:46:31.763Z,100484.66
2022-11-27T18:49:33.635Z,100486.24
2022-11-27T18:52:35.233Z,100480.64
2022-11-27T18:55:37.215Z,100475.73
2022-11-27T18:58:39.788Z,100476.65
2022-11-27T19:01:42.754Z,100475.15
2022-11-27T19:04:45.331Z,100472.58
2022-11-27T19:07:47.154Z,100475.42
2022-11-27T19:10:48.879Z,100475.53
2022-11-27T19:13:53.354Z,100478.13
2022-11-27T19:16:55.232Z,100478.92
2022-11-27T19:19:56.879Z,100479.68
2022-11-27T19:22:58.625Z,100481.27
2022-11-27T19:26:04.420Z,100480.64
2022-11-27T19:29:08.604Z,100482.58
2022-11-27T19:32:10.392Z,100478.15
2022-11-27T19:35:12.099Z,100480.23
2022-11-27T19:38:16.974Z,100481.70
2022-11-27T19:41:18.833Z,100476.27
2022-11-27T19:44:20.530Z,100478.02
2022-11-27T19:47:22.143Z,100482.25
2022-11-27T19:50:24.113Z,100484.16
2022-11-27T19:53:26.761Z,100485.16
2022-11-27T19:56:30.617Z,100484.68
2022-11-27T19:59:32.444Z,100486.04
2022-11-27T20:02:35.173Z,100481.25
2022-11-27T20:05:37.014Z,100474.55
2022-11-27T20:08:39.316Z,100469.84
2022-11-27T20:11:41.194Z,100466.77
2022-11-27T20:14:43.618Z,100463.83
2022-11-27T20:17:45.520Z,100459.77
2022-11-27T20:20:47.214Z,100460.14
2022-11-27T20:23:51.032Z,100465.65
2022-11-27T20:26:52.635Z,100465.73
2022-11-27T20:29:55.596Z,100460.65
2022-11-27T20:32:57.439Z,100458.30
2022-11-27T20:35:59.479Z,100454.45
2022-11-27T20:39:01.810Z,100450.69
2022-11-27T20:42:03.612Z,100443.48
2022-11-27T20:45:05.423Z,100440.27
2022-11-27T20:48:08.957Z,100439.42
2022-11-27T20:51:13.876Z,100434.52
2022-11-27T20:54:15.609Z,100428.20
2022-11-27T20:57:17.841Z,100428.98
2022-11-27T21:00:20.204Z,100422.95
2022-11-27T21:03:21.819Z,100419.63
2022-11-27T21:06:26.402Z,100418.11
2022-11-27T21:09:28.181Z,100416.55
2022-11-27T21:12:29.771Z,100414.35
2022-11-27T21:15:31.432Z,100415.77
2022-11-27T21:18:33.108Z,100419.14
2022-11-27T21:21:34.934Z,100412.98
2022-11-27T21:24:36.782Z,100413.36
2022-11-27T21:27:38.480Z,100421.09
2022-11-27T21:30:40.173Z,100419.52
2022-11-27T21:33:41.798Z,100414.80
2022-11-27T21:36:43.624Z,100416.91
2022-11-27T21:39:45.357Z,100418.46
2022-11-27T21:42:46.931Z,100421.52
2022-11-27T21:45:48.886Z,100418.04
2022-11-27T21:48:51.972Z,100413.32
2022-11-27T21:51:54.450Z,100410.24
2022-11-27T21:54:56.275Z,100409.97
2022-11-27T21:57:58.075Z,100407.46
2022-11-27T22:01:01.402Z,100403.05
2022-11-27T22:04:03.143Z,100403.02
2022-11-27T22:07:09.448Z,100399.78
2022-11-27T22:10:11.566Z,100401.10
2022-11-27T22:13:13.217Z,100395.55
2022-11-27T22:16:18.343Z,100391.95
2022-11-27T22:19:20.152Z,100390.39
2022-11-27T22:22:22.024Z,100387.91
2022-11-27T22:25:23.779Z,100395.66
2022-11-27T22:28:25.413Z,100389.00
2022-11-27T22:31:35.337Z,100388.08
2022-11-27T22:34:37.048Z,100384.14
2022-11-27T22:37:38.625Z,100380.63
2022-11-27T22:40:40.336Z,100375.00
2022-11-27T22:43:42.242Z,100372.98
2022-11-27T22:46:45.042Z,100368.90
2022-11-27T22:49:46.666Z,100365.13
2022-11-27T22:52:48.338Z,100372.96
2022-11-27T22:55:49.916Z,100372.89
2022-11-27T22:59:06.028Z,100370.44
2022-11-27T23:02:13.382Z,100366.16
2022-11-27T23:05:15.047Z,100358.86
2022-11-27T23:08:19.029Z,100351.92
2022-11-27T23:11:26.322Z,100345.55
2022-11-27T23:14:28.126Z,100344.08
2022-11-27T23:17:29.961Z,100339.58
2022-11-27T23:20:31.836Z,100336.35
2022-11-27T23:23:33.772Z,100326.61
2022-11-27T23:26:35.507Z,100318.59
2022-11-27T23:29:37.192Z,100319.40
2022-11-27T23:32:39.460Z,100318.16
2022-11-27T23:35:41.205Z,100312.09
2022-11-27T23:38:42.828Z,100308.56
2022-11-27T23:41:44.471Z,100307.90
2022-11-27T23:44:46.241Z,100309.64
2022-11-27T23:47:50.426Z,100310.48
2022-11-27T23:50:52.113Z,100306.34
2022-11-27T23:53:54.058Z,100306.01
2022-11-27T23:56:56.286Z,100308.10
2022-11-27T23:59:58.534Z,100305.35
